createdAt,value
2023-04-15T00:00:58.495Z,6.68
2023-04-15T00:03:27.138Z,8.57
2023-04-15T00:05:56.354Z,9.90
2023-04-15T00:08:24.877Z,6.88
2023-04-15T00:10:54.774Z,6.70
2023-04-15T00:13:23.714Z,6.72
2023-04-15T00:15:53.738Z,4.53
2023-04-15T00:18:23.691Z,5.60
2023-04-15T00:20:52.575Z,5.78
2023-04-15T00:23:21.026Z,12.93
2023-04-15T00:25:49.785Z,8.73
2023-04-15T00:28:19.580Z,6.15
2023-04-15T00:30:48.369Z,8.40
2023-04-15T00:33:17.776Z,8.63
2023-04-15T00:35:46.295Z,8.15
2023-04-15T00:38:14.775Z,12.30
2023-04-15T00:40:43.637Z,8.05
2023-04-15T00:43:12.017Z,6.63
2023-04-15T00:45:41.905Z,9.60
2023-04-15T00:48:10.655Z,8.40
2023-04-15T00:50:39.048Z,8.63
2023-04-15T00:53:07.434Z,8.52
2023-04-15T00:55:36.260Z,7.28
2023-04-15T00:58:04.938Z,8.25
2023-04-15T01:00:33.411Z,11.45
2023-04-15T01:03:03.335Z,7.47
2023-04-15T01:05:32.357Z,6.78
2023-04-15T01:08:00.770Z,6.13
2023-04-15T01:10:29.161Z,6.28
2023-04-15T01:12:58.028Z,8.40
2023-04-15T01:15:27.538Z,9.30
2023-04-15T01:17:56.146Z,9.75
2023-04-15T01:20:26.016Z,8.38
2023-04-15T01:22:54.396Z,7.95
2023-04-15T01:25:29.721Z,9.48
2023-04-15T01:27:58.219Z,10.15
2023-04-15T01:30:27.007Z,11.02
2023-04-15T01:32:56.117Z,8.40
2023-04-15T01:35:24.724Z,6.78
2023-04-15T01:37:54.395Z,5.43
2023-04-15T01:40:22.953Z,8.15
2023-04-15T01:42:52.712Z,6.20
2023-04-15T01:45:21.232Z,6.78
2023-04-15T01:47:50.512Z,10.98
2023-04-15T01:50:19.003Z,6.32
2023-04-15T01:52:47.678Z,7.60
2023-04-15T01:55:16.181Z,8.10
2023-04-15T01:57:44.568Z,10.15
2023-04-15T02:00:14.822Z,8.43
2023-04-15T02:02:43.700Z,10.07
2023-04-15T02:05:12.237Z,10.63
2023-04-15T02:07:40.621Z,10.57
2023-04-15T02:10:09.498Z,9.80
2023-04-15T02:12:37.980Z,7.85
2023-04-15T02:15:07.163Z,8.18
2023-04-15T02:17:37.678Z,11.15
2023-04-15T02:20:06.871Z,10.23
2023-04-15T02:22:35.292Z,8.27
2023-04-15T02:25:03.698Z,12.38
2023-04-15T02:27:32.868Z,9.55
2023-04-15T02:30:01.287Z,10.10
2023-04-15T02:32:29.773Z,9.18
2023-04-15T02:35:03.945Z,6.57
2023-04-15T02:37:32.607Z,7.30
2023-04-15T02:40:01.407Z,6.97
2023-04-15T02:42:30.462Z,11.20
2023-04-15T02:44:59.443Z,10.65
2023-04-15T02:47:27.879Z,10.55
2023-04-15T02:49:56.376Z,13.57
2023-04-15T02:52:26.179Z,8.65
2023-04-15T02:54:57.780Z,8.23
2023-04-15T02:57:26.240Z,9.57
2023-04-15T02:59:54.687Z,7.28
2023-04-15T03:02:23.501Z,8.65
2023-04-15T03:04:51.998Z,10.82
2023-04-15T03:07:20.639Z,7.35
2023-04-15T03:09:50.623Z,7.45
2023-04-15T03:12:19.054Z,13.70
2023-04-15T03:14:47.461Z,13.13
2023-04-15T03:17:15.866Z,11.55
2023-04-15T03:19:44.282Z,13.23
2023-04-15T03:22:12.691Z,11.35
2023-04-15T03:24:41.080Z,9.98
2023-04-15T03:27:10.890Z,9.68
2023-04-15T03:29:39.303Z,8.98
2023-04-15T03:32:07.692Z,8.50
2023-04-15T03:34:36.146Z,7.53
2023-04-15T03:37:04.745Z,9.30
2023-04-15T03:39:33.164Z,8.00
2023-04-15T03:42:01.933Z,6.57
2023-04-15T03:44:32.928Z,10.57
2023-04-15T03:47:01.485Z,7.55
2023-04-15T03:49:29.869Z,11.20
2023-04-15T03:51:58.437Z,6.88
2023-04-15T03:54:26.840Z,7.65
2023-04-15T03:56:55.237Z,9.40
2023-04-15T03:59:23.693Z,8.40
2023-04-15T04:01:53.564Z,8.43
2023-04-15T04:04:22.539Z,7.28
2023-04-15T04:06:51.080Z,7.10
2023-04-15T04:09:19.503Z,6.28
2023-04-15T04:11:47.885Z,8.00
2023-04-15T04:14:16.420Z,7.05
2023-04-15T04:16:44.876Z,8.10
2023-04-15T04:19:15.032Z,8.30
2023-04-15T04:21:43.451Z,7.57
2023-04-15T04:24:11.888Z,11.95
2023-04-15T04:26:40.315Z,9.75
2023-04-15T04:29:08.750Z,4.50
2023-04-15T04:31:37.183Z,9.70
2023-04-15T04:34:05.714Z,8.98
2023-04-15T04:36:35.483Z,6.63
2023-04-15T04:39:04.132Z,8.98
2023-04-15T04:41:32.525Z,10.77
2023-04-15T04:44:00.962Z,10.63
2023-04-15T04:46:29.390Z,9.43
2023-04-15T04:48:57.846Z,9.13
2023-04-15T04:51:26.359Z,11.25
2023-04-15T04:53:57.306Z,6.72
2023-04-15T04:56:25.809Z,13.05
2023-04-15T04:58:54.224Z,10.90
2023-04-15T05:01:22.639Z,6.57
2023-04-15T05:03:51.274Z,11.90
2023-04-15T05:06:19.812Z,11.13
2023-04-15T05:08:48.260Z,8.07
2023-04-15T05:11:18.208Z,10.93
2023-04-15T05:13:46.651Z,7.90
2023-04-15T05:16:15.177Z,11.20
2023-04-15T05:18:43.573Z,10.95
2023-04-15T05:21:11.999Z,11.90
2023-04-15T05:23:40.417Z,10.27
2023-04-15T05:26:09.082Z,12.63
2023-04-15T05:28:38.799Z,10.10
2023-04-15T05:31:07.502Z,9.55
2023-04-15T05:33:36.159Z,14.15
2023-04-15T05:36:04.596Z,6.82
2023-04-15T05:38:33.036Z,7.72
2023-04-15T05:41:01.443Z,7.45
2023-04-15T05:43:30.820Z,7.88
2023-04-15T05:46:00.658Z,14.30
2023-04-15T05:48:28.934Z,12.65
2023-04-15T05:50:57.193Z,11.65
2023-04-15T05:53:25.380Z,9.23
2023-04-15T05:55:53.615Z,13.35
2023-04-15T05:58:21.990Z,11.35
2023-04-15T06:00:50.214Z,11.73
2023-04-15T06:03:19.892Z,11.05
2023-04-15T06:05:48.331Z,9.77
2023-04-15T06:08:16.455Z,8.95
2023-04-15T06:10:44.739Z,8.68
2023-04-15T06:13:13.001Z,7.70
2023-04-15T06:15:41.285Z,9.18
2023-04-15T06:18:09.439Z,19.83
2023-04-15T06:20:39.412Z,11.85
2023-04-15T06:23:07.597Z,11.60
2023-04-15T06:25:35.819Z,20.67
2023-04-15T06:28:03.988Z,15.40
2023-04-15T06:30:32.168Z,15.07
2023-04-15T06:33:00.393Z,12.18
2023-04-15T06:35:28.660Z,15.00
2023-04-15T06:37:58.212Z,13.93
2023-04-15T06:40:26.814Z,10.70
2023-04-15T06:42:55.395Z,19.95
2023-04-15T06:45:23.921Z,13.43
2023-04-15T06:47:52.729Z,12.75
2023-04-15T06:50:21.190Z,15.75
2023-04-15T06:52:49.716Z,17.23
2023-04-15T06:55:19.522Z,16.58
2023-04-15T06:57:50.901Z,14.48
2023-04-15T07:00:20.436Z,14.00
2023-04-15T07:02:49.003Z,25.08
2023-04-15T07:05:19.127Z,18.20
2023-04-15T07:07:47.778Z,23.40
2023-04-15T07:10:16.276Z,21.58
2023-04-15T07:12:46.249Z,18.60
2023-04-15T07:15:14.664Z,13.55
2023-04-15T07:17:43.843Z,7.68
2023-04-15T07:20:12.811Z,25.15
2023-04-15T07:22:41.745Z,15.82
2023-04-15T07:25:10.662Z,18.13
2023-04-15T07:27:39.162Z,15.82
2023-04-15T07:30:10.710Z,17.35
2023-04-15T07:32:39.179Z,19.88
2023-04-15T07:35:07.915Z,18.50
2023-04-15T07:37:36.294Z,19.30
2023-04-15T07:40:07.225Z,23.02
2023-04-15T07:42:36.636Z,18.27
2023-04-15T07:45:05.388Z,17.83
2023-04-15T07:47:35.240Z,17.77
2023-04-15T07:50:03.722Z,18.65
2023-04-15T07:52:32.476Z,15.57
2023-04-15T07:55:00.886Z,14.85
2023-04-15T07:57:29.318Z,17.45
2023-04-15T07:59:57.713Z,17.77
2023-04-15T08:02:25.999Z,14.25
2023-04-15T08:04:55.670Z,19.23
2023-04-15T08:07:23.908Z,12.68
2023-04-15T08:09:52.356Z,14.38
2023-04-15T08:12:20.623Z,11.52
2023-04-15T08:14:48.836Z,18.00
2023-04-15T08:17:16.999Z,17.48
2023-04-15T08:19:45.164Z,19.05
2023-04-15T08:22:16.077Z,11.95
2023-04-15T08:24:46.720Z,8.77
2023-04-15T08:27:14.860Z,12.52
2023-04-15T08:29:43.376Z,10.32
2023-04-15T08:32:11.776Z,10.07
2023-04-15T08:34:40.197Z,17.42
2023-04-15T08:37:09.613Z,12.45
2023-04-15T08:39:40.221Z,13.50
2023-04-15T08:42:13.486Z,13.80
2023-04-15T08:44:41.906Z,12.32
2023-04-15T08:47:10.960Z,15.88
2023-04-15T08:49:41.828Z,13.98
2023-04-15T08:52:10.508Z,14.45
2023-04-15T08:54:40.257Z,8.35
2023-04-15T08:57:08.911Z,14.88
2023-04-15T08:59:37.313Z,5.78
2023-04-15T09:02:07.079Z,8.63
2023-04-15T09:04:35.614Z,11.00
2023-04-15T09:07:04.936Z,11.02
2023-04-15T09:09:33.843Z,9.52
2023-04-15T09:12:04.754Z,9.70
2023-04-15T09:14:34.085Z,9.43
2023-04-15T09:17:04.410Z,9.70
2023-04-15T09:19:34.612Z,9.80
2023-04-15T09:22:04.255Z,5.80
2023-04-15T09:24:43.361Z,10.73
2023-04-15T09:27:12.986Z,8.82
2023-04-15T09:29:42.888Z,5.20
2023-04-15T09:32:12.459Z,5.95
2023-04-15T09:34:40.698Z,8.50
2023-04-15T09:37:10.990Z,7.70
2023-04-15T09:39:50.657Z,9.05
2023-04-15T09:42:24.504Z,12.13
2023-04-15T09:44:53.221Z,5.53
2023-04-15T09:47:39.193Z,7.03
2023-04-15T09:50:08.491Z,6.47
2023-04-15T09:52:43.988Z,7.72
2023-04-15T09:55:13.495Z,6.03
2023-04-15T09:57:44.383Z,6.28
2023-04-15T10:00:13.115Z,10.02
2023-04-15T10:02:44.936Z,5.63
2023-04-15T10:05:16.364Z,5.78
2023-04-15T10:07:45.854Z,7.60
2023-04-15T10:10:14.778Z,7.70
2023-04-15T10:12:45.536Z,9.48
2023-04-15T10:15:16.999Z,4.22
2023-04-15T10:17:46.407Z,6.68
2023-04-15T10:20:16.135Z,7.68
2023-04-15T10:22:46.477Z,12.50
2023-04-15T10:25:16.499Z,5.10
2023-04-15T10:27:48.577Z,5.70
2023-04-15T10:30:17.561Z,7.22
2023-04-15T10:32:46.736Z,6.38
2023-04-15T10:35:15.660Z,7.32
2023-04-15T10:37:43.821Z,5.13
2023-04-15T10:40:33.218Z,4.13
2023-04-15T10:43:03.619Z,4.85
2023-04-15T10:45:34.792Z,3.30
2023-04-15T10:48:04.612Z,3.78
2023-04-15T10:50:33.286Z,5.20
2023-04-15T10:53:04.115Z,6.05
2023-04-15T10:55:34.273Z,6.43
2023-04-15T10:58:04.248Z,6.88
2023-04-15T11:00:35.351Z,4.80
2023-04-15T11:03:08.466Z,6.15
2023-04-15T11:05:53.211Z,6.53
2023-04-15T11:08:23.745Z,5.70
2023-04-15T11:10:56.580Z,6.60
2023-04-15T11:13:31.804Z,6.65
2023-04-15T11:16:03.976Z,6.70
2023-04-15T11:18:33.844Z,4.82
2023-04-15T11:21:07.071Z,4.70
2023-04-15T11:23:41.255Z,3.30
2023-04-15T11:26:12.361Z,2.67
2023-04-15T11:28:43.385Z,2.80
2023-04-15T11:31:13.655Z,2.80
2023-04-15T11:33:56.545Z,3.53
2023-04-15T11:36:28.361Z,7.43
2023-04-15T11:38:57.158Z,6.57
2023-04-15T11:41:25.576Z,5.55
2023-04-15T11:43:55.157Z,3.42
2023-04-15T11:46:30.019Z,5.03
2023-04-15T11:48:58.373Z,3.45
2023-04-15T11:51:26.540Z,3.85
2023-04-15T11:53:55.982Z,3.88
2023-04-15T11:56:25.590Z,2.83
2023-04-15T11:58:57.315Z,3.20
2023-04-15T12:01:33.212Z,1.23
2023-04-15T12:04:02.498Z,3.30
2023-04-15T12:06:35.093Z,5.55
2023-04-15T12:09:09.351Z,4.18
2023-04-15T12:11:40.322Z,6.13
2023-04-15T12:14:12.736Z,2.03
2023-04-15T12:16:48.488Z,2.13
2023-04-15T12:19:24.532Z,3.13
2023-04-15T12:22:00.230Z,2.17
2023-04-15T12:24:29.491Z,3.30
2023-04-15T12:26:59.252Z,2.92
2023-04-15T12:29:30.196Z,2.80
2023-04-15T12:31:59.993Z,1.95
2023-04-15T12:34:30.643Z,3.80
2023-04-15T12:37:00.699Z,3.80
2023-04-15T12:39:30.795Z,3.50
2023-04-15T12:42:00.460Z,3.80
2023-04-15T12:44:30.617Z,4.05
2023-04-15T12:46:59.893Z,4.97
2023-04-15T12:49:28.935Z,3.88
2023-04-15T12:51:59.587Z,3.20
2023-04-15T12:54:28.238Z,3.25
2023-04-15T12:56:56.790Z,3.40
2023-04-15T12:59:25.307Z,2.90
2023-04-15T13:01:55.140Z,4.63
2023-04-15T13:04:24.097Z,2.50
2023-04-15T13:06:52.362Z,3.65
2023-04-15T13:09:20.655Z,2.70
2023-04-15T13:11:48.792Z,3.15
2023-04-15T13:14:17.023Z,4.60
2023-04-15T13:16:45.692Z,1.95
2023-04-15T13:19:15.472Z,3.78
2023-04-15T13:21:43.665Z,0.70
2023-04-15T13:24:11.870Z,4.55
2023-04-15T13:26:40.372Z,7.05
2023-04-15T13:29:08.544Z,3.10
2023-04-15T13:31:36.751Z,3.15
2023-04-15T13:34:05.477Z,4.60
2023-04-15T13:36:35.458Z,5.32
2023-04-15T13:39:05.628Z,6.80
2023-04-15T13:41:33.796Z,4.10
2023-04-15T13:44:02.071Z,2.72
2023-04-15T13:46:30.350Z,3.78
2023-04-15T13:48:58.533Z,5.20
2023-04-15T13:51:27.098Z,2.00
2023-04-15T13:53:58.175Z,2.92
2023-04-15T13:56:26.692Z,2.75
2023-04-15T13:58:58.914Z,8.13
2023-04-15T14:01:27.452Z,3.05
2023-04-15T14:03:55.792Z,4.88
2023-04-15T14:06:24.051Z,2.33
2023-04-15T14:08:53.080Z,2.20
2023-04-15T14:11:22.662Z,4.78
2023-04-15T14:13:50.851Z,3.05
2023-04-15T14:16:19.095Z,3.47
2023-04-15T14:18:47.531Z,1.25
2023-04-15T14:21:16.088Z,2.72
2023-04-15T14:23:44.662Z,4.90
2023-04-15T14:26:13.761Z,3.35
2023-04-15T14:28:45.101Z,5.15
2023-04-15T14:31:14.321Z,2.55
2023-04-15T14:33:42.672Z,4.72
2023-04-15T14:36:11.610Z,4.00
2023-04-15T14:38:40.251Z,4.13
2023-04-15T14:41:09.117Z,2.35
2023-04-15T14:43:37.803Z,3.13
2023-04-15T14:46:08.631Z,4.30
2023-04-15T14:48:37.044Z,4.03
2023-04-15T14:51:05.722Z,2.20
2023-04-15T14:53:33.994Z,5.72
2023-04-15T14:56:02.175Z,1.77
2023-04-15T14:58:30.381Z,4.90
2023-04-15T15:00:58.593Z,2.88
2023-04-15T15:03:28.260Z,1.75
2023-04-15T15:05:57.736Z,3.45
2023-04-15T15:08:26.115Z,3.38
2023-04-15T15:11:00.301Z,3.13
2023-04-15T15:13:28.530Z,3.20
2023-04-15T15:15:56.733Z,2.55
2023-04-15T15:18:25.652Z,20.55
2023-04-15T15:20:55.274Z,19.08
2023-04-15T15:23:23.425Z,17.55
2023-04-15T15:25:51.658Z,6.80
2023-04-15T15:28:21.794Z,8.90
2023-04-15T15:30:50.122Z,5.13
2023-04-15T15:33:18.566Z,6.80
2023-04-15T15:35:47.021Z,4.90
2023-04-15T15:38:16.672Z,5.47
2023-04-15T15:40:44.848Z,5.03
2023-04-15T15:43:13.250Z,5.47
2023-04-15T15:45:41.915Z,6.57
2023-04-15T15:48:10.210Z,4.47
2023-04-15T15:50:38.460Z,4.18
2023-04-15T15:53:06.699Z,9.35
2023-04-15T15:55:36.269Z,6.63
2023-04-15T15:58:04.674Z,2.65
2023-04-15T16:00:33.043Z,5.60
2023-04-15T16:03:07.427Z,4.30
2023-04-15T16:05:39.902Z,2.67
2023-04-15T16:08:08.150Z,7.10
2023-04-15T16:10:38.805Z,2.70
2023-04-15T16:13:07.009Z,2.08
2023-04-15T16:15:39.810Z,3.72
2023-04-15T16:18:08.196Z,3.67
2023-04-15T16:20:36.630Z,1.65
2023-04-15T16:23:09.574Z,2.65
2023-04-15T16:25:39.462Z,2.40
2023-04-15T16:28:18.592Z,2.75
2023-04-15T16:30:51.497Z,2.17
2023-04-15T16:33:19.941Z,3.55
2023-04-15T16:35:48.368Z,5.53
2023-04-15T16:38:16.775Z,3.05
2023-04-15T16:40:46.589Z,2.38
2023-04-15T16:43:15.089Z,2.75
2023-04-15T16:45:44.541Z,2.60
2023-04-15T16:48:12.684Z,3.22
2023-04-15T16:50:40.869Z,1.45
2023-04-15T16:53:09.503Z,5.00
2023-04-15T16:55:37.637Z,2.67
2023-04-15T16:58:08.448Z,5.53
2023-04-15T17:00:37.262Z,2.55
2023-04-15T17:03:06.959Z,3.20
2023-04-15T17:05:35.463Z,1.92
2023-04-15T17:08:05.908Z,6.53
2023-04-15T17:10:34.329Z,2.67
2023-04-15T17:13:02.501Z,11.10
2023-04-15T17:15:32.408Z,2.97
2023-04-15T17:18:00.932Z,3.05
2023-04-15T17:20:29.282Z,3.35
2023-04-15T17:22:57.736Z,3.22
2023-04-15T17:25:25.909Z,2.33
2023-04-15T17:27:54.068Z,2.35
2023-04-15T17:30:22.530Z,4.13
2023-04-15T17:32:53.009Z,2.63
2023-04-15T17:35:23.073Z,2.53
2023-04-15T17:37:51.237Z,5.43
2023-04-15T17:40:19.509Z,5.55
2023-04-15T17:42:47.675Z,2.67
2023-04-15T17:45:16.129Z,2.45
2023-04-15T17:47:44.425Z,3.72
2023-04-15T17:50:14.045Z,3.47
2023-04-15T17:52:42.475Z,2.75
2023-04-15T17:55:11.099Z,3.83
2023-04-15T17:57:39.545Z,7.68
2023-04-15T18:00:08.863Z,4.28
2023-04-15T18:02:37.722Z,7.63
2023-04-15T18:05:06.738Z,3.15
2023-04-15T18:07:36.574Z,2.58
2023-04-15T18:10:05.262Z,5.75
2023-04-15T18:12:33.424Z,4.82
2023-04-15T18:15:01.788Z,3.70
2023-04-15T18:17:30.168Z,1.27
2023-04-15T18:20:02.789Z,3.05
2023-04-15T18:22:31.204Z,5.05
2023-04-15T18:25:04.244Z,3.50
2023-04-15T18:27:33.194Z,4.53
2023-04-15T18:30:01.618Z,3.20
2023-04-15T18:32:32.687Z,3.70
2023-04-15T18:35:01.075Z,4.95
2023-04-15T18:37:30.003Z,4.60
2023-04-15T18:39:58.514Z,4.53
2023-04-15T18:42:28.277Z,9.77
2023-04-15T18:44:56.582Z,4.93
2023-04-15T18:47:26.906Z,4.82
2023-04-15T18:49:55.615Z,3.38
2023-04-15T18:52:23.856Z,3.53
2023-04-15T18:54:52.085Z,6.53
2023-04-15T18:57:25.858Z,6.55
2023-04-15T19:00:02.136Z,5.50
2023-04-15T19:02:30.713Z,5.28
2023-04-15T19:04:59.192Z,8.18
2023-04-15T19:07:27.654Z,4.10
2023-04-15T19:09:56.110Z,5.35
2023-04-15T19:12:26.917Z,4.63
2023-04-15T19:14:55.567Z,5.50
2023-04-15T19:17:25.574Z,6.55
2023-04-15T19:19:54.033Z,5.15
2023-04-15T19:22:22.548Z,5.22
2023-04-15T19:24:51.011Z,9.90
2023-04-15T19:27:19.540Z,6.38
2023-04-15T19:29:48.020Z,9.80
2023-04-15T19:32:16.431Z,11.55
2023-04-15T19:34:46.513Z,14.60
2023-04-15T19:37:15.015Z,11.98
2023-04-15T19:39:43.424Z,9.70
2023-04-15T19:42:11.949Z,10.13
2023-04-15T19:44:42.970Z,8.98
2023-04-15T19:47:11.469Z,6.93
2023-04-15T19:49:40.092Z,4.55
2023-04-15T19:52:09.950Z,7.22
2023-04-15T19:54:38.445Z,7.82
2023-04-15T19:57:06.880Z,9.32
2023-04-15T19:59:35.354Z,10.10
2023-04-15T20:02:04.102Z,9.88
2023-04-15T20:04:32.856Z,10.93
2023-04-15T20:07:01.376Z,10.63
2023-04-15T20:09:31.222Z,7.65
2023-04-15T20:12:44.960Z,9.80
2023-04-15T20:14:48.665Z,5.95
2023-04-15T20:17:17.180Z,12.93
2023-04-15T20:19:45.701Z,5.55
2023-04-15T20:22:14.090Z,8.70
2023-04-15T20:24:43.848Z,7.45
2023-04-15T20:27:12.225Z,7.78
2023-04-15T20:29:40.658Z,11.80
2023-04-15T20:32:11.445Z,9.75
2023-04-15T20:34:41.267Z,5.18
2023-04-15T20:37:09.650Z,6.72
2023-04-15T20:39:38.068Z,12.05
2023-04-15T20:42:10.161Z,12.55
2023-04-15T20:44:39.468Z,9.05
2023-04-15T20:47:08.047Z,9.23
2023-04-15T20:49:36.688Z,10.93
2023-04-15T20:52:05.167Z,8.27
2023-04-15T20:54:33.691Z,8.93
2023-04-15T20:57:02.582Z,8.90
2023-04-15T20:59:32.864Z,9.80
2023-04-15T21:02:01.504Z,8.90
2023-04-15T21:04:30.053Z,9.02
2023-04-15T21:06:58.554Z,7.60
2023-04-15T21:09:27.005Z,9.15
2023-04-15T21:14:27.263Z,13.45
2023-04-15T21:16:58.763Z,8.55
2023-04-15T21:19:27.161Z,8.55
2023-04-15T21:21:55.588Z,9.52
2023-04-15T21:24:24.074Z,12.95
2023-04-15T21:26:52.497Z,8.75
2023-04-15T21:29:20.981Z,15.52
2023-04-15T21:31:49.442Z,14.38
2023-04-15T21:34:19.290Z,7.22
2023-04-15T21:36:47.749Z,8.77
2023-04-15T21:39:17.102Z,6.60
2023-04-15T21:41:45.755Z,9.80
2023-04-15T21:44:15.078Z,9.27
2023-04-15T21:46:45.942Z,8.20
2023-04-15T21:49:14.749Z,7.53
2023-04-15T21:51:45.694Z,13.23
2023-04-15T21:54:14.098Z,7.25
2023-04-15T21:56:43.466Z,7.28
2023-04-15T21:59:11.817Z,14.57
2023-04-15T22:01:40.247Z,7.35
2023-04-15T22:04:09.717Z,7.57
2023-04-15T22:06:38.224Z,9.30
2023-04-15T22:09:07.999Z,6.88
2023-04-15T22:11:36.392Z,11.18
2023-04-15T22:14:05.341Z,8.63
2023-04-15T22:16:33.848Z,8.80
2023-04-15T22:19:02.669Z,7.45
2023-04-15T22:21:31.768Z,9.18
2023-04-15T22:24:38.524Z,8.50
2023-04-15T22:26:50.036Z,10.05
2023-04-15T22:29:18.496Z,9.18
2023-04-15T22:31:46.948Z,8.05
2023-04-15T22:34:20.745Z,9.20
2023-04-15T22:36:49.198Z,7.47
2023-04-15T22:39:17.707Z,11.40
2023-04-15T22:41:46.160Z,7.43
2023-04-15T22:44:15.951Z,9.25
2023-04-15T22:46:44.479Z,5.80
2023-04-15T22:49:12.931Z,5.93
2023-04-15T22:51:41.384Z,5.30
2023-04-15T22:54:09.769Z,5.43
2023-04-15T22:56:38.149Z,7.97
2023-04-15T22:59:06.657Z,10.40
2023-04-15T23:01:38.268Z,8.07
2023-04-15T23:04:09.772Z,8.40
2023-04-15T23:06:52.494Z,8.30
2023-04-15T23:09:21.054Z,9.80
2023-04-15T23:11:49.475Z,11.68
2023-04-15T23:14:17.893Z,10.75
2023-04-15T23:16:47.687Z,7.28
2023-04-15T23:19:16.085Z,13.93
2023-04-15T23:21:44.501Z,6.75
2023-04-15T23:24:13.377Z,6.40
2023-04-15T23:26:41.903Z,10.30
2023-04-15T23:29:10.518Z,10.95
2023-04-15T23:31:39.153Z,7.28
2023-04-15T23:34:08.976Z,9.40
2023-04-15T23:36:37.358Z,9.68
2023-04-15T23:39:05.864Z,6.95
2023-04-15T23:41:34.244Z,6.70
2023-04-15T23:44:02.639Z,8.02
2023-04-15T23:46:31.094Z,7.78
2023-04-15T23:48:59.488Z,9.57
2023-04-15T23:51:29.304Z,8.05
2023-04-15T23:53:57.727Z,6.32
2023-04-15T23:56:26.270Z,7.10
2023-04-15T23:58:54.687Z,9.98
